createdAt,value
2023-03-08T00:03:25.032Z,77.70
2023-03-08T00:10:54.503Z,77.70
2023-03-08T00:18:24.524Z,77.70
2023-03-08T00:23:34.310Z,77.70
2023-03-08T00:36:15.862Z,77.60
2023-03-08T00:41:16.616Z,77.70
2023-03-08T00:46:15.318Z,77.60
2023-03-08T00:51:16.208Z,77.50
2023-03-08T00:56:14.731Z,77.70
2023-03-08T01:19:05.392Z,77.60
2023-03-08T01:24:04.084Z,77.50
2023-03-08T01:34:05.056Z,77.60
2023-03-08T01:39:04.105Z,77.60
2023-03-08T01:55:06.016Z,77.70
2023-03-08T01:57:37.296Z,77.70
2023-03-08T02:05:24.552Z,77.70
2023-03-08T02:12:55.302Z,77.70
2023-03-08T02:17:54.025Z,77.70
2023-03-08T02:20:35.924Z,77.70
2023-03-08T02:31:04.304Z,77.70
2023-03-08T02:36:05.214Z,77.70
2023-03-08T02:41:04.083Z,77.80
2023-03-08T02:51:05.219Z,77.90
2023-03-08T02:58:34.982Z,77.90
2023-03-08T03:06:04.707Z,77.90
2023-03-08T03:11:11.469Z,78.00
2023-03-08T03:13:38.070Z,77.90
2023-03-08T03:16:13.340Z,77.90
2023-03-08T03:18:40.326Z,77.90
2023-03-08T03:21:09.579Z,77.90
2023-03-08T03:23:36.663Z,78.00
2023-03-08T03:26:08.912Z,78.10
2023-03-08T03:28:35.808Z,78.00
2023-03-08T03:31:06.162Z,78.00
2023-03-08T03:33:32.700Z,78.00
2023-03-08T03:35:59.364Z,78.10
2023-03-08T03:38:25.925Z,78.00
2023-03-08T03:41:10.980Z,78.10
2023-03-08T03:43:38.299Z,78.00
2023-03-08T03:46:07.747Z,78.10
2023-03-08T03:48:35.636Z,78.10
2023-03-08T03:51:05.209Z,78.10
2023-03-08T03:53:33.799Z,78.10
2023-03-08T03:56:06.560Z,78.10
2023-03-08T03:58:33.365Z,78.10
2023-03-08T04:03:31.662Z,78.10
2023-03-08T04:06:15.746Z,78.10
2023-03-08T04:08:42.738Z,78.10
2023-03-08T04:11:11.000Z,78.10
2023-03-08T04:13:37.752Z,78.10
2023-03-08T04:16:22.436Z,78.10
2023-03-08T04:18:52.355Z,78.10
2023-03-08T04:21:18.957Z,78.10
2023-03-08T04:23:45.578Z,78.10
2023-03-08T04:26:13.256Z,78.10
2023-03-08T04:28:41.194Z,78.20
2023-03-08T04:31:16.552Z,78.30
2023-03-08T04:33:44.035Z,78.20
2023-03-08T04:36:10.896Z,78.20
2023-03-08T04:38:37.460Z,78.30
2023-03-08T04:41:12.943Z,78.10
2023-03-08T04:43:41.229Z,78.20
2023-03-08T04:46:08.609Z,78.20
2023-03-08T04:48:35.507Z,78.20
2023-03-08T04:51:04.503Z,78.20
2023-03-08T04:53:31.947Z,78.20
2023-03-08T04:56:00.393Z,78.30
2023-03-08T04:58:28.780Z,79.00
2023-03-08T05:00:55.739Z,78.30
2023-03-08T05:03:22.507Z,78.30
2023-03-08T05:05:52.383Z,78.20
2023-03-08T05:13:36.872Z,78.30
2023-03-08T05:16:05.546Z,78.30
2023-03-08T05:18:32.601Z,78.30
2023-03-08T05:21:06.199Z,78.30
2023-03-08T05:23:33.418Z,78.30
2023-03-08T05:26:01.710Z,78.30
2023-03-08T05:31:06.713Z,78.30
2023-03-08T05:33:34.561Z,78.30
2023-03-08T05:36:01.411Z,78.30
2023-03-08T05:41:06.100Z,78.30
2023-03-08T05:43:33.573Z,78.30
2023-03-08T05:46:03.408Z,78.30
2023-03-08T05:48:31.359Z,78.30
2023-03-08T05:56:15.805Z,78.30
2023-03-08T05:58:44.058Z,78.30
2023-03-08T06:01:22.592Z,78.30
2023-03-08T06:03:51.705Z,78.30
2023-03-08T06:08:51.969Z,78.40
2023-03-08T06:13:50.660Z,78.30
2023-03-08T06:16:17.409Z,78.30
2023-03-08T06:18:43.993Z,78.30
2023-03-08T06:21:21.191Z,78.50
2023-03-08T06:28:51.130Z,78.40
2023-03-08T06:33:50.564Z,78.30
2023-03-08T06:38:50.877Z,78.40
2023-03-08T06:43:50.595Z,78.40
2023-03-08T06:48:50.377Z,78.40
2023-03-08T07:16:35.043Z,80.90
2023-03-08T07:19:03.123Z,81.20
2023-03-08T07:21:29.672Z,81.30
2023-03-08T07:23:56.230Z,81.40
2023-03-08T07:26:23.023Z,81.50
2023-03-08T07:28:51.132Z,81.60
2023-03-08T07:31:18.137Z,81.60
2023-03-08T07:33:44.760Z,81.90
2023-03-08T07:36:11.465Z,82.00
2023-03-08T07:38:38.074Z,81.90
2023-03-08T07:41:04.781Z,81.90
2023-03-08T07:43:31.377Z,81.80
2023-03-08T07:46:02.570Z,81.60
2023-03-08T07:48:29.796Z,81.50
2023-03-08T07:51:02.230Z,81.80
2023-03-08T07:53:29.397Z,82.00
2023-03-08T07:55:58.023Z,82.10
2023-03-08T07:58:24.872Z,82.20
2023-03-08T08:00:51.439Z,82.20
2023-03-08T08:03:18.205Z,82.40
2023-03-08T08:05:45.098Z,82.60
2023-03-08T08:08:13.759Z,82.70
2023-03-08T08:10:41.540Z,82.60
2023-03-08T08:13:08.465Z,82.70
2023-03-08T08:15:35.394Z,82.90
2023-03-08T08:18:02.100Z,82.90
2023-03-08T08:20:28.777Z,82.90
2023-03-08T08:22:55.333Z,83.00
2023-03-08T08:25:22.008Z,82.90
2023-03-08T08:27:49.860Z,83.00
2023-03-08T08:30:16.618Z,83.00
2023-03-08T08:32:43.276Z,83.10
2023-03-08T08:37:41.609Z,83.10
2023-03-08T08:42:41.792Z,83.30
2023-03-08T08:47:40.797Z,83.30
2023-03-08T08:55:10.699Z,83.50
2023-03-08T09:02:41.464Z,82.30
2023-03-08T09:10:12.041Z,81.80
2023-03-08T09:12:38.963Z,81.70
2023-03-08T09:59:41.036Z,83.90
2023-03-08T10:02:32.283Z,83.90
2023-03-08T10:05:12.898Z,84.10
2023-03-08T10:10:54.052Z,84.50
2023-03-08T10:13:23.924Z,84.60
2023-03-08T10:15:52.755Z,84.70
2023-03-08T10:21:02.006Z,85.00
2023-03-08T10:23:32.352Z,85.00
2023-03-08T10:26:00.963Z,85.10
2023-03-08T10:31:04.191Z,85.20
2023-03-08T10:33:34.156Z,85.20
2023-03-08T10:36:12.583Z,85.30
2023-03-08T10:41:12.819Z,85.40
2023-03-08T10:43:44.619Z,85.50
2023-03-08T10:48:51.664Z,85.60
2023-03-08T10:51:25.525Z,85.60
2023-03-08T11:01:54.065Z,85.90
2023-03-08T11:04:22.862Z,85.90
2023-03-08T11:06:50.430Z,86.80
2023-03-08T11:09:31.574Z,84.80
2023-03-08T11:14:31.572Z,84.90
2023-03-08T11:17:31.827Z,85.00
2023-03-08T11:20:11.015Z,85.10
2023-03-08T11:22:40.589Z,85.20
2023-03-08T11:28:14.086Z,85.70
2023-03-08T11:31:15.215Z,85.80
2023-03-08T11:33:54.252Z,85.80
2023-03-08T11:36:24.930Z,85.80
2023-03-08T11:41:51.143Z,85.70
2023-03-08T11:47:34.700Z,85.70
2023-03-08T11:53:21.532Z,86.40
2023-03-08T12:01:32.445Z,85.00
2023-03-08T12:06:42.505Z,84.70
2023-03-08T12:09:36.211Z,84.50
2023-03-08T12:20:36.408Z,84.20
2023-03-08T12:23:16.882Z,84.20
2023-03-08T12:25:47.095Z,84.20
2023-03-08T12:28:33.389Z,84.10
2023-03-08T12:31:27.942Z,84.80
2023-03-08T12:36:41.160Z,85.80
2023-03-08T12:39:25.398Z,85.70
2023-03-08T12:42:10.810Z,85.70
2023-03-08T12:47:13.384Z,85.80
2023-03-08T12:52:20.423Z,85.90
2023-03-08T13:05:47.715Z,86.20
2023-03-08T13:08:14.303Z,86.40
2023-03-08T13:10:53.786Z,86.40
2023-03-08T13:13:39.046Z,86.40
2023-03-08T13:16:14.920Z,86.50
2023-03-08T13:27:18.449Z,86.70
2023-03-08T13:29:46.732Z,86.80
2023-03-08T13:32:21.843Z,86.80
2023-03-08T13:37:32.083Z,86.80
2023-03-08T13:42:31.517Z,87.40
2023-03-08T13:45:10.645Z,87.00
2023-03-08T13:52:50.889Z,87.20
2023-03-08T13:55:25.323Z,87.20
2023-03-08T13:57:53.928Z,87.20
2023-03-08T14:05:44.017Z,87.40
2023-03-08T14:13:42.492Z,87.40
2023-03-08T14:16:22.266Z,87.40
2023-03-08T14:21:23.629Z,87.40
2023-03-08T14:26:35.182Z,87.50
2023-03-08T14:29:13.654Z,87.50
2023-03-08T14:31:53.424Z,87.40
2023-03-08T14:34:29.136Z,87.50
2023-03-08T15:00:35.999Z,87.70
2023-03-08T15:03:02.768Z,87.90
2023-03-08T15:05:30.395Z,87.70
2023-03-08T15:07:59.420Z,87.70
2023-03-08T15:10:38.374Z,87.80
2023-03-08T15:13:08.248Z,87.80
2023-03-08T15:15:34.881Z,87.80
2023-03-08T15:18:01.561Z,87.70
2023-03-08T15:20:28.670Z,87.60
2023-03-08T15:22:59.420Z,87.70
2023-03-08T15:25:33.549Z,87.70
2023-03-08T15:28:00.437Z,87.60
2023-03-08T15:30:30.387Z,87.80
2023-03-08T15:32:59.527Z,87.60
2023-03-08T15:35:26.408Z,87.50
2023-03-08T15:37:53.124Z,87.30
2023-03-08T15:40:21.868Z,87.10
2023-03-08T15:42:48.655Z,87.00
2023-03-08T15:45:15.758Z,86.80
2023-03-08T15:47:43.019Z,86.80
2023-03-08T15:50:18.246Z,86.70
2023-03-08T15:52:45.487Z,86.60
2023-03-08T15:55:13.678Z,86.60
2023-03-08T16:02:39.205Z,86.40
2023-03-08T16:05:08.020Z,86.20
2023-03-08T16:07:35.467Z,86.20
2023-03-08T16:12:29.488Z,86.10
2023-03-08T16:14:57.260Z,86.10
2023-03-08T16:17:25.946Z,86.00
2023-03-08T16:29:52.017Z,86.90
2023-03-08T16:32:20.267Z,87.00
2023-03-08T16:34:51.058Z,87.20
2023-03-08T16:37:19.256Z,87.30
2023-03-08T16:39:48.319Z,87.40
2023-03-08T16:42:15.736Z,87.50
2023-03-08T16:44:49.262Z,87.60
2023-03-08T16:57:19.469Z,88.10
2023-03-08T17:02:18.090Z,89.80
2023-03-08T17:04:45.809Z,89.90
2023-03-08T17:12:07.460Z,89.40
2023-03-08T17:14:34.993Z,89.30
2023-03-08T17:24:28.061Z,89.20
2023-03-08T17:26:55.550Z,89.70
2023-03-08T17:31:54.511Z,89.20
2023-03-08T17:39:17.500Z,89.60
2023-03-08T17:44:16.422Z,89.30
2023-03-08T17:54:07.484Z,89.40
2023-03-08T17:56:36.556Z,89.40
2023-03-08T18:14:14.295Z,89.60
2023-03-08T18:19:14.173Z,89.20
2023-03-08T18:21:41.634Z,89.00
2023-03-08T18:24:11.870Z,88.90
2023-03-08T18:26:38.548Z,88.80
2023-03-08T18:29:05.250Z,88.60
2023-03-08T18:31:34.970Z,88.60
2023-03-08T18:34:02.041Z,89.30
2023-03-08T18:36:28.684Z,88.40
2023-03-08T18:38:55.413Z,88.20
2023-03-08T18:41:27.414Z,88.20
2023-03-08T18:43:55.242Z,88.10
2023-03-08T18:46:29.603Z,88.10
2023-03-08T18:49:07.147Z,88.00
2023-03-08T18:51:35.526Z,88.00
2023-03-08T18:56:30.227Z,87.80
2023-03-08T18:59:00.247Z,87.60
2023-03-08T19:01:28.519Z,87.60
2023-03-08T19:03:55.252Z,87.60
2023-03-08T19:08:48.665Z,87.50
2023-03-08T19:11:18.079Z,87.50
2023-03-08T19:13:45.752Z,87.30
2023-03-08T19:16:28.318Z,87.40
2023-03-08T19:18:57.915Z,87.20
2023-03-08T19:21:30.421Z,87.20
2023-03-08T19:23:57.678Z,87.10
2023-03-08T19:26:36.387Z,87.20
2023-03-08T19:29:11.429Z,87.40
2023-03-08T19:31:41.565Z,87.50
2023-03-08T19:34:08.833Z,87.60
2023-03-08T19:36:35.671Z,88.70
2023-03-08T19:41:36.172Z,88.00
2023-03-08T19:44:07.083Z,88.00
2023-03-08T19:46:38.200Z,88.00
2023-03-08T19:49:06.652Z,88.00
2023-03-08T19:51:34.247Z,88.20
2023-03-08T19:56:27.817Z,88.20
2023-03-08T20:01:27.029Z,88.40
2023-03-08T20:03:54.096Z,88.60
2023-03-08T20:06:25.499Z,88.80
2023-03-08T20:08:56.973Z,88.80
2023-03-08T20:11:24.123Z,88.60
2023-03-08T21:27:25.284Z,86.60
2023-03-08T21:29:54.002Z,86.70
2023-03-08T21:32:20.773Z,87.40
2023-03-08T21:34:47.527Z,86.50
2023-03-08T21:37:14.273Z,86.50
2023-03-08T21:39:40.908Z,86.50
2023-03-08T21:42:07.580Z,86.50
2023-03-08T21:44:34.263Z,86.50
2023-03-08T21:47:00.975Z,86.40
2023-03-08T21:49:29.668Z,86.40
2023-03-08T21:51:58.090Z,86.30
2023-03-08T21:54:27.063Z,86.30
2023-03-08T21:56:54.488Z,86.30
2023-03-08T21:59:28.179Z,86.30
2023-03-08T22:01:58.413Z,86.30
2023-03-08T22:04:26.663Z,86.30
2023-03-08T22:06:55.457Z,86.30
2023-03-08T22:09:23.008Z,86.20
2023-03-08T22:11:49.881Z,86.30
2023-03-08T22:14:16.591Z,86.20
2023-03-08T22:16:43.482Z,86.20
2023-03-08T22:19:10.702Z,86.10
2023-03-08T22:21:37.484Z,86.10
2023-03-08T22:24:04.390Z,86.10
2023-03-08T22:26:31.857Z,86.10
2023-03-08T22:28:58.617Z,86.10
2023-03-08T22:31:27.071Z,86.10
2023-03-08T22:33:54.084Z,86.00
2023-03-08T22:36:21.252Z,86.10
2023-03-08T22:38:47.779Z,86.00
2023-03-08T22:41:20.972Z,85.90
2023-03-08T22:43:48.640Z,85.90
2023-03-08T22:46:18.831Z,85.90
2023-03-08T22:48:47.016Z,85.90
2023-03-08T22:51:15.921Z,85.80
2023-03-08T22:58:54.933Z,85.80
2023-03-08T23:03:57.034Z,85.80
2023-03-08T23:06:27.930Z,85.80
2023-03-08T23:14:04.770Z,85.70
2023-03-08T23:16:32.262Z,85.60
2023-03-08T23:18:58.953Z,85.60
2023-03-08T23:21:29.307Z,85.60
2023-03-08T23:23:57.489Z,85.60
2023-03-08T23:26:27.133Z,85.60
2023-03-08T23:28:55.514Z,85.60
2023-03-08T23:31:25.911Z,85.60
2023-03-08T23:36:25.631Z,85.50
2023-03-08T23:41:25.320Z,85.50
2023-03-08T23:43:56.596Z,85.50
2023-03-08T23:46:24.076Z,85.50
2023-03-08T23:48:51.491Z,85.50
2023-03-08T23:51:19.804Z,85.50
2023-03-08T23:53:51.168Z,85.40
2023-03-08T23:56:37.694Z,85.50
2023-03-08T23:59:16.196Z,85.40
